Главная страница
METAR-TAF:

METAR-TAF

Аэропорты :

Latrobe, Пенсильвания, США

широта: 40-17N, долгота: 079-24W, высота над уровнем моря: 361 м

Текущие метеонаблюдения

Эта сводка был подготовлена 23 минут назад, в 02:15 UTC
Штиль
Температура 15°C
Влажность 88%
Давление 1024 hPa
Видимость: 16.1 км
ясное небо

METAR: KLBE 250215Z AUTO 00000KT 10SM CLR 15/13 A3025 RMK AO2

Время: 22:38 (02:38 UTC)

Прогноз

Эта сводка был подготовлена 3 часа и 18 минут назад, в 23:20 UTC
Прогноз действительный с 25-го 00 UTC до 25-го 24 UTC
Ветер 5 Узел от северо-восточный
Видимость: 10 км
ясное небо
С 25-го 1400 UTC
Ветер 10 Узел от восточный
Видимость: 10 км
ясное небо

TAF: KLBE 242320Z 2500/2524 04005KT P6SM SKC FM251400 09010KT P6SM SKC

Метеонаблюдения и прогнозы для более 4000 аэропортов (сводки METAR и TAF).

Имеющиеся станции представлены на карте желтыми и красными точками.

Чтобы увидеть название станции, наведите на нее мышь.

Затем щелкните, чтобы увидеть метеонаблюдения и метеопрогнозы.

Управление картой: чтобы увеличить масштаб, щелкните зеленые кнопки с черным крестиком; чтобы уменьшить масштаб, щелкните зеленую кнопку с тире; для просмотра соседних карт щелкайте зеленые стрелки.


METAR-TAF: